sensor_id;sensor_type;location;lat;lon;timestamp;temperature;humidity
10678;DHT22;5387;48.722;9.110;2022-11-11T00:01:44;4.60;99.90
10678;DHT22;5387;48.722;9.110;2022-11-11T00:04:11;4.50;99.90
10678;DHT22;5387;48.722;9.110;2022-11-11T00:06:39;4.40;99.90
10678;DHT22;5387;48.722;9.110;2022-11-11T00:09:05;4.50;99.90
10678;DHT22;5387;48.722;9.110;2022-11-11T00:11:32;4.50;99.90
10678;DHT22;5387;48.722;9.110;2022-11-11T00:13:59;4.50;99.90
10678;DHT22;5387;48.722;9.110;2022-11-11T00:16:26;4.50;99.90
10678;DHT22;5387;48.722;9.110;2022-11-11T00:19:13;4.50;99.90
10678;DHT22;5387;48.722;9.110;2022-11-11T00:21:59;4.40;99.90
10678;DHT22;5387;48.722;9.110;2022-11-11T00:24:43;4.40;99.90
10678;DHT22;5387;48.722;9.110;2022-11-11T00:27:27;4.40;99.90
10678;DHT22;5387;48.722;9.110;2022-11-11T00:29:54;4.40;99.90
10678;DHT22;5387;48.722;9.110;2022-11-11T00:32:21;4.40;99.90
10678;DHT22;5387;48.722;9.110;2022-11-11T00:34:54;4.40;99.90
10678;DHT22;5387;48.722;9.110;2022-11-11T00:37:40;4.30;99.90
10678;DHT22;5387;48.722;9.110;2022-11-11T00:40:09;4.40;99.90
10678;DHT22;5387;48.722;9.110;2022-11-11T00:42:36;4.30;99.90
10678;DHT22;5387;48.722;9.110;2022-11-11T00:45:04;4.30;99.90
10678;DHT22;5387;48.722;9.110;2022-11-11T00:47:31;4.30;99.90
10678;DHT22;5387;48.722;9.110;2022-11-11T00:50:18;4.30;99.90
10678;DHT22;5387;48.722;9.110;2022-11-11T00:53:09;4.20;99.90
10678;DHT22;5387;48.722;9.110;2022-11-11T00:55:36;4.20;99.90
10678;DHT22;5387;48.722;9.110;2022-11-11T00:58:03;4.10;99.90
10678;DHT22;5387;48.722;9.110;2022-11-11T01:00:30;4.10;99.90
10678;DHT22;5387;48.722;9.110;2022-11-11T01:02:57;4.40;99.90
10678;DHT22;5387;48.722;9.110;2022-11-11T01:05:24;4.20;99.90
10678;DHT22;5387;48.722;9.110;2022-11-11T01:07:51;4.10;99.90
10678;DHT22;5387;48.722;9.110;2022-11-11T01:10:20;4.10;99.90
10678;DHT22;5387;48.722;9.110;2022-11-11T01:13:14;4.10;99.90
10678;DHT22;5387;48.722;9.110;2022-11-11T01:15:42;4.00;99.90
10678;DHT22;5387;48.722;9.110;2022-11-11T01:18:10;3.90;99.90
10678;DHT22;5387;48.722;9.110;2022-11-11T01:20:38;4.00;99.90
10678;DHT22;5387;48.722;9.110;2022-11-11T01:23:07;3.80;99.90
10678;DHT22;5387;48.722;9.110;2022-11-11T01:25:37;3.80;99.90
10678;DHT22;5387;48.722;9.110;2022-11-11T01:28:05;3.90;99.90
10678;DHT22;5387;48.722;9.110;2022-11-11T01:30:33;3.80;99.90
10678;DHT22;5387;48.722;9.110;2022-11-11T01:33:01;3.90;99.90
10678;DHT22;5387;48.722;9.110;2022-11-11T01:35:28;3.90;99.90
10678;DHT22;5387;48.722;9.110;2022-11-11T01:37:56;3.80;99.90
10678;DHT22;5387;48.722;9.110;2022-11-11T01:40:23;3.80;99.90
10678;DHT22;5387;48.722;9.110;2022-11-11T01:42:53;4.00;99.90
10678;DHT22;5387;48.722;9.110;2022-11-11T01:45:49;3.90;99.90
10678;DHT22;5387;48.722;9.110;2022-11-11T01:48:18;3.80;99.90
10678;DHT22;5387;48.722;9.110;2022-11-11T01:51:09;3.80;99.90
10678;DHT22;5387;48.722;9.110;2022-11-11T01:53:38;3.80;99.90
10678;DHT22;5387;48.722;9.110;2022-11-11T01:56:05;3.80;99.90
10678;DHT22;5387;48.722;9.110;2022-11-11T01:58:36;3.90;99.90
10678;DHT22;5387;48.722;9.110;2022-11-11T02:01:04;3.80;99.90
10678;DHT22;5387;48.722;9.110;2022-11-11T02:03:37;3.80;99.90
10678;DHT22;5387;48.722;9.110;2022-11-11T02:06:04;3.80;99.90
10678;DHT22;5387;48.722;9.110;2022-11-11T02:08:32;3.70;99.90
10678;DHT22;5387;48.722;9.110;2022-11-11T02:11:02;3.70;99.90
10678;DHT22;5387;48.722;9.110;2022-11-11T02:13:30;3.70;99.90
10678;DHT22;5387;48.722;9.110;2022-11-11T02:16:16;3.60;99.90
10678;DHT22;5387;48.722;9.110;2022-11-11T02:18:43;3.60;99.90
10678;DHT22;5387;48.722;9.110;2022-11-11T02:21:13;3.70;99.90
10678;DHT22;5387;48.722;9.110;2022-11-11T02:23:51;3.70;99.90
10678;DHT22;5387;48.722;9.110;2022-11-11T02:26:19;3.60;99.90
10678;DHT22;5387;48.722;9.110;2022-11-11T02:28:46;3.70;99.90
10678;DHT22;5387;48.722;9.110;2022-11-11T02:31:13;3.70;99.90
10678;DHT22;5387;48.722;9.110;2022-11-11T02:33:40;3.90;99.90
10678;DHT22;5387;48.722;9.110;2022-11-11T02:36:13;3.60;99.90
10678;DHT22;5387;48.722;9.110;2022-11-11T02:38:40;3.60;99.90
10678;DHT22;5387;48.722;9.110;2022-11-11T02:41:09;3.60;99.90
10678;DHT22;5387;48.722;9.110;2022-11-11T02:43:53;3.60;99.90
10678;DHT22;5387;48.722;9.110;2022-11-11T02:46:20;3.60;99.90
10678;DHT22;5387;48.722;9.110;2022-11-11T02:48:47;3.70;99.90
10678;DHT22;5387;48.722;9.110;2022-11-11T02:51:14;3.60;99.90
10678;DHT22;5387;48.722;9.110;2022-11-11T02:53:40;3.60;99.90
10678;DHT22;5387;48.722;9.110;2022-11-11T02:56:08;3.60;99.90
10678;DHT22;5387;48.722;9.110;2022-11-11T02:58:35;3.60;99.90
10678;DHT22;5387;48.722;9.110;2022-11-11T03:01:02;3.80;99.90
10678;DHT22;5387;48.722;9.110;2022-11-11T03:03:29;3.60;99.90
10678;DHT22;5387;48.722;9.110;2022-11-11T03:05:56;3.60;99.90
10678;DHT22;5387;48.722;9.110;2022-11-11T03:08:22;3.70;99.90
10678;DHT22;5387;48.722;9.110;2022-11-11T03:10:49;3.60;99.90
10678;DHT22;5387;48.722;9.110;2022-11-11T03:13:17;3.70;99.90
10678;DHT22;5387;48.722;9.110;2022-11-11T03:15:44;3.60;99.90
10678;DHT22;5387;48.722;9.110;2022-11-11T03:18:11;3.40;99.90
10678;DHT22;5387;48.722;9.110;2022-11-11T03:20:37;3.60;99.90
10678;DHT22;5387;48.722;9.110;2022-11-11T03:23:21;3.50;99.90
10678;DHT22;5387;48.722;9.110;2022-11-11T03:25:48;3.60;99.90
10678;DHT22;5387;48.722;9.110;2022-11-11T03:28:18;3.50;99.90
10678;DHT22;5387;48.722;9.110;2022-11-11T03:30:47;3.40;99.90
10678;DHT22;5387;48.722;9.110;2022-11-11T03:33:15;3.80;99.90
10678;DHT22;5387;48.722;9.110;2022-11-11T03:35:42;3.60;99.90
10678;DHT22;5387;48.722;9.110;2022-11-11T03:38:11;3.60;99.90
10678;DHT22;5387;48.722;9.110;2022-11-11T03:40:49;3.50;99.90
10678;DHT22;5387;48.722;9.110;2022-11-11T03:43:22;3.40;99.90
10678;DHT22;5387;48.722;9.110;2022-11-11T03:45:49;3.40;99.90
10678;DHT22;5387;48.722;9.110;2022-11-11T03:48:16;3.40;99.90
10678;DHT22;5387;48.722;9.110;2022-11-11T03:50:45;3.30;99.90
10678;DHT22;5387;48.722;9.110;2022-11-11T03:53:12;3.50;99.90
10678;DHT22;5387;48.722;9.110;2022-11-11T03:55:39;3.30;99.90
10678;DHT22;5387;48.722;9.110;2022-11-11T03:58:06;3.30;99.90
10678;DHT22;5387;48.722;9.110;2022-11-11T04:00:35;3.20;99.90
10678;DHT22;5387;48.722;9.110;2022-11-11T04:03:04;3.30;99.90
10678;DHT22;5387;48.722;9.110;2022-11-11T04:05:48;3.40;99.90
10678;DHT22;5387;48.722;9.110;2022-11-11T04:08:33;3.40;99.90
10678;DHT22;5387;48.722;9.110;2022-11-11T04:11:22;3.50;99.90
10678;DHT22;5387;48.722;9.110;2022-11-11T04:13:49;3.50;99.90
10678;DHT22;5387;48.722;9.110;2022-11-11T04:16:36;3.60;99.90
10678;DHT22;5387;48.722;9.110;2022-11-11T04:19:03;3.90;99.90
10678;DHT22;5387;48.722;9.110;2022-11-11T04:21:48;3.90;99.90
10678;DHT22;5387;48.722;9.110;2022-11-11T04:24:16;3.80;99.90
10678;DHT22;5387;48.722;9.110;2022-11-11T04:27:02;3.80;99.90
10678;DHT22;5387;48.722;9.110;2022-11-11T04:29:30;3.90;99.90
10678;DHT22;5387;48.722;9.110;2022-11-11T04:31:59;3.70;99.90
10678;DHT22;5387;48.722;9.110;2022-11-11T04:34:57;3.80;99.90
10678;DHT22;5387;48.722;9.110;2022-11-11T04:37:25;3.80;99.90
10678;DHT22;5387;48.722;9.110;2022-11-11T04:39:52;3.70;99.90
10678;DHT22;5387;48.722;9.110;2022-11-11T04:42:36;3.60;99.90
10678;DHT22;5387;48.722;9.110;2022-11-11T04:45:04;3.60;99.90
10678;DHT22;5387;48.722;9.110;2022-11-11T04:47:54;3.60;99.90
10678;DHT22;5387;48.722;9.110;2022-11-11T04:50:22;3.60;99.90
10678;DHT22;5387;48.722;9.110;2022-11-11T04:52:49;3.60;99.90
10678;DHT22;5387;48.722;9.110;2022-11-11T04:55:16;3.60;99.90
10678;DHT22;5387;48.722;9.110;2022-11-11T04:58:01;3.60;99.90
10678;DHT22;5387;48.722;9.110;2022-11-11T05:00:28;3.50;99.90
10678;DHT22;5387;48.722;9.110;2022-11-11T05:02:56;3.60;99.90
10678;DHT22;5387;48.722;9.110;2022-11-11T05:05:41;3.50;99.90
10678;DHT22;5387;48.722;9.110;2022-11-11T05:08:25;3.40;99.90
10678;DHT22;5387;48.722;9.110;2022-11-11T05:11:09;3.40;99.90
10678;DHT22;5387;48.722;9.110;2022-11-11T05:13:36;3.40;99.90
10678;DHT22;5387;48.722;9.110;2022-11-11T05:16:22;3.50;99.90
10678;DHT22;5387;48.722;9.110;2022-11-11T05:19:10;3.50;99.90
10678;DHT22;5387;48.722;9.110;2022-11-11T05:21:56;3.60;99.90
10678;DHT22;5387;48.722;9.110;2022-11-11T05:24:25;3.60;99.90
10678;DHT22;5387;48.722;9.110;2022-11-11T05:27:09;3.60;99.90
10678;DHT22;5387;48.722;9.110;2022-11-11T05:29:36;3.60;99.90
10678;DHT22;5387;48.722;9.110;2022-11-11T05:32:03;3.50;99.90
10678;DHT22;5387;48.722;9.110;2022-11-11T05:34:32;3.40;99.90
10678;DHT22;5387;48.722;9.110;2022-11-11T05:36:58;3.60;99.90
10678;DHT22;5387;48.722;9.110;2022-11-11T05:39:25;3.60;99.90
10678;DHT22;5387;48.722;9.110;2022-11-11T05:41:52;3.60;99.90
10678;DHT22;5387;48.722;9.110;2022-11-11T05:44:19;3.70;99.90
10678;DHT22;5387;48.722;9.110;2022-11-11T05:46:45;3.70;99.90
10678;DHT22;5387;48.722;9.110;2022-11-11T05:49:12;3.70;99.90
10678;DHT22;5387;48.722;9.110;2022-11-11T05:51:44;3.70;99.90
10678;DHT22;5387;48.722;9.110;2022-11-11T05:54:11;3.70;99.90
10678;DHT22;5387;48.722;9.110;2022-11-11T05:56:39;3.90;99.90
10678;DHT22;5387;48.722;9.110;2022-11-11T05:59:06;3.70;99.90
10678;DHT22;5387;48.722;9.110;2022-11-11T06:01:33;3.80;99.90
10678;DHT22;5387;48.722;9.110;2022-11-11T06:04:00;3.70;99.90
10678;DHT22;5387;48.722;9.110;2022-11-11T06:06:27;3.60;99.90
10678;DHT22;5387;48.722;9.110;2022-11-11T06:08:55;3.60;99.90
10678;DHT22;5387;48.722;9.110;2022-11-11T06:11:22;3.60;99.90
10678;DHT22;5387;48.722;9.110;2022-11-11T06:13:49;3.80;99.90
10678;DHT22;5387;48.722;9.110;2022-11-11T06:16:16;3.80;99.90
10678;DHT22;5387;48.722;9.110;2022-11-11T06:18:43;3.70;99.90
10678;DHT22;5387;48.722;9.110;2022-11-11T06:21:10;3.70;99.90
10678;DHT22;5387;48.722;9.110;2022-11-11T06:23:37;3.80;99.90
10678;DHT22;5387;48.722;9.110;2022-11-11T06:26:06;3.70;99.90
10678;DHT22;5387;48.722;9.110;2022-11-11T06:28:38;3.80;99.90
10678;DHT22;5387;48.722;9.110;2022-11-11T06:31:05;3.90;99.90
10678;DHT22;5387;48.722;9.110;2022-11-11T06:33:33;3.90;99.90
10678;DHT22;5387;48.722;9.110;2022-11-11T06:36:00;3.60;99.90
10678;DHT22;5387;48.722;9.110;2022-11-11T06:38:27;3.70;99.90
10678;DHT22;5387;48.722;9.110;2022-11-11T06:40:54;3.70;99.90
10678;DHT22;5387;48.722;9.110;2022-11-11T06:43:22;3.70;99.90
10678;DHT22;5387;48.722;9.110;2022-11-11T06:45:50;3.80;99.90
10678;DHT22;5387;48.722;9.110;2022-11-11T06:48:17;3.80;99.90
10678;DHT22;5387;48.722;9.110;2022-11-11T06:50:44;3.90;99.90
10678;DHT22;5387;48.722;9.110;2022-11-11T06:53:12;4.00;99.90
10678;DHT22;5387;48.722;9.110;2022-11-11T06:55:40;4.20;99.90
10678;DHT22;5387;48.722;9.110;2022-11-11T06:58:08;4.20;99.90
10678;DHT22;5387;48.722;9.110;2022-11-11T07:00:37;4.30;99.90
10678;DHT22;5387;48.722;9.110;2022-11-11T07:03:05;4.30;99.90
10678;DHT22;5387;48.722;9.110;2022-11-11T07:05:33;4.30;99.90
10678;DHT22;5387;48.722;9.110;2022-11-11T07:08:01;4.40;99.90
10678;DHT22;5387;48.722;9.110;2022-11-11T07:10:28;4.60;99.90
10678;DHT22;5387;48.722;9.110;2022-11-11T07:12:55;4.70;99.90
10678;DHT22;5387;48.722;9.110;2022-11-11T07:15:22;4.70;99.90
10678;DHT22;5387;48.722;9.110;2022-11-11T07:17:50;4.80;99.90
10678;DHT22;5387;48.722;9.110;2022-11-11T07:20:17;4.80;99.90
10678;DHT22;5387;48.722;9.110;2022-11-11T07:22:44;4.90;99.90
10678;DHT22;5387;48.722;9.110;2022-11-11T07:25:11;4.80;99.90
10678;DHT22;5387;48.722;9.110;2022-11-11T07:27:38;4.80;99.90
10678;DHT22;5387;48.722;9.110;2022-11-11T07:30:07;5.10;99.90
10678;DHT22;5387;48.722;9.110;2022-11-11T07:32:34;5.20;99.90
10678;DHT22;5387;48.722;9.110;2022-11-11T07:35:03;5.20;99.90
10678;DHT22;5387;48.722;9.110;2022-11-11T07:37:30;5.30;99.90
10678;DHT22;5387;48.722;9.110;2022-11-11T07:39:57;5.10;99.90
10678;DHT22;5387;48.722;9.110;2022-11-11T07:42:23;5.30;99.90
10678;DHT22;5387;48.722;9.110;2022-11-11T07:44:50;5.20;99.90
10678;DHT22;5387;48.722;9.110;2022-11-11T07:47:17;5.40;99.90
10678;DHT22;5387;48.722;9.110;2022-11-11T07:49:44;5.50;99.90
10678;DHT22;5387;48.722;9.110;2022-11-11T07:52:12;5.60;99.90
10678;DHT22;5387;48.722;9.110;2022-11-11T07:54:39;5.70;99.90
10678;DHT22;5387;48.722;9.110;2022-11-11T07:57:06;5.70;99.90
10678;DHT22;5387;48.722;9.110;2022-11-11T07:59:33;5.70;99.90
10678;DHT22;5387;48.722;9.110;2022-11-11T08:02:00;5.90;99.90
10678;DHT22;5387;48.722;9.110;2022-11-11T08:04:26;6.10;99.90
10678;DHT22;5387;48.722;9.110;2022-11-11T08:06:53;6.30;99.90
10678;DHT22;5387;48.722;9.110;2022-11-11T08:09:21;6.50;99.90
10678;DHT22;5387;48.722;9.110;2022-11-11T08:11:48;6.60;99.90
10678;DHT22;5387;48.722;9.110;2022-11-11T08:14:33;6.70;99.90
10678;DHT22;5387;48.722;9.110;2022-11-11T08:16:59;6.80;99.90
10678;DHT22;5387;48.722;9.110;2022-11-11T08:19:26;7.00;99.90
10678;DHT22;5387;48.722;9.110;2022-11-11T08:21:53;7.10;99.90
10678;DHT22;5387;48.722;9.110;2022-11-11T08:24:21;7.20;99.90
10678;DHT22;5387;48.722;9.110;2022-11-11T08:26:48;7.30;99.90
10678;DHT22;5387;48.722;9.110;2022-11-11T08:29:15;7.50;99.90
10678;DHT22;5387;48.722;9.110;2022-11-11T08:31:42;7.50;99.90
10678;DHT22;5387;48.722;9.110;2022-11-11T08:34:09;7.80;99.90
10678;DHT22;5387;48.722;9.110;2022-11-11T08:36:35;8.00;99.90
10678;DHT22;5387;48.722;9.110;2022-11-11T08:39:02;7.80;99.90
10678;DHT22;5387;48.722;9.110;2022-11-11T08:41:30;8.00;99.90
10678;DHT22;5387;48.722;9.110;2022-11-11T08:43:57;8.00;99.90
10678;DHT22;5387;48.722;9.110;2022-11-11T08:46:26;8.10;99.90
10678;DHT22;5387;48.722;9.110;2022-11-11T08:48:52;8.00;99.90
10678;DHT22;5387;48.722;9.110;2022-11-11T08:51:19;8.10;99.90
10678;DHT22;5387;48.722;9.110;2022-11-11T08:53:46;8.10;99.90
10678;DHT22;5387;48.722;9.110;2022-11-11T08:56:13;8.10;99.90
10678;DHT22;5387;48.722;9.110;2022-11-11T08:58:41;7.90;99.90
10678;DHT22;5387;48.722;9.110;2022-11-11T09:01:10;8.10;99.90
10678;DHT22;5387;48.722;9.110;2022-11-11T09:03:38;8.30;99.90
10678;DHT22;5387;48.722;9.110;2022-11-11T09:06:08;8.20;99.90
10678;DHT22;5387;48.722;9.110;2022-11-11T09:08:36;8.30;99.90
10678;DHT22;5387;48.722;9.110;2022-11-11T09:11:03;8.40;99.90
10678;DHT22;5387;48.722;9.110;2022-11-11T09:13:29;8.50;99.90
10678;DHT22;5387;48.722;9.110;2022-11-11T09:15:58;8.60;99.90
10678;DHT22;5387;48.722;9.110;2022-11-11T09:18:25;8.70;99.90
10678;DHT22;5387;48.722;9.110;2022-11-11T09:20:52;8.90;99.90
10678;DHT22;5387;48.722;9.110;2022-11-11T09:23:18;9.10;99.90
10678;DHT22;5387;48.722;9.110;2022-11-11T09:25:45;9.30;99.90
10678;DHT22;5387;48.722;9.110;2022-11-11T09:28:12;9.40;99.90
10678;DHT22;5387;48.722;9.110;2022-11-11T09:30:39;9.70;99.90
10678;DHT22;5387;48.722;9.110;2022-11-11T09:33:07;9.90;99.90
10678;DHT22;5387;48.722;9.110;2022-11-11T09:35:37;10.20;99.90
10678;DHT22;5387;48.722;9.110;2022-11-11T09:38:04;10.20;99.90
10678;DHT22;5387;48.722;9.110;2022-11-11T09:40:42;10.30;99.90
10678;DHT22;5387;48.722;9.110;2022-11-11T09:43:18;10.40;99.90
10678;DHT22;5387;48.722;9.110;2022-11-11T09:45:54;10.60;99.90
10678;DHT22;5387;48.722;9.110;2022-11-11T09:48:37;10.60;99.90
10678;DHT22;5387;48.722;9.110;2022-11-11T09:51:13;10.70;99.90
10678;DHT22;5387;48.722;9.110;2022-11-11T09:53:45;10.70;99.90
10678;DHT22;5387;48.722;9.110;2022-11-11T09:56:16;10.80;99.90
10678;DHT22;5387;48.722;9.110;2022-11-11T09:58:47;10.90;99.90
10678;DHT22;5387;48.722;9.110;2022-11-11T10:01:18;11.00;99.90
10678;DHT22;5387;48.722;9.110;2022-11-11T10:03:51;11.00;99.90
10678;DHT22;5387;48.722;9.110;2022-11-11T10:06:22;11.10;99.90
10678;DHT22;5387;48.722;9.110;2022-11-11T10:08:54;11.20;99.90
10678;DHT22;5387;48.722;9.110;2022-11-11T10:11:33;11.30;99.90
10678;DHT22;5387;48.722;9.110;2022-11-11T10:14:04;11.30;99.90
10678;DHT22;5387;48.722;9.110;2022-11-11T10:16:39;11.40;99.90
10678;DHT22;5387;48.722;9.110;2022-11-11T10:19:22;11.50;99.90
10678;DHT22;5387;48.722;9.110;2022-11-11T10:21:56;11.80;99.90
10678;DHT22;5387;48.722;9.110;2022-11-11T10:24:28;12.20;99.90
10678;DHT22;5387;48.722;9.110;2022-11-11T10:26:55;12.30;99.90
10678;DHT22;5387;48.722;9.110;2022-11-11T10:29:26;12.40;99.90
10678;DHT22;5387;48.722;9.110;2022-11-11T10:32:00;12.60;99.90
10678;DHT22;5387;48.722;9.110;2022-11-11T10:34:32;12.50;99.90
10678;DHT22;5387;48.722;9.110;2022-11-11T10:37:00;12.60;99.90
10678;DHT22;5387;48.722;9.110;2022-11-11T10:39:37;12.40;99.90
10678;DHT22;5387;48.722;9.110;2022-11-11T10:42:14;12.40;99.90
10678;DHT22;5387;48.722;9.110;2022-11-11T10:44:43;12.50;99.90
10678;DHT22;5387;48.722;9.110;2022-11-11T10:47:13;12.70;99.90
10678;DHT22;5387;48.722;9.110;2022-11-11T10:49:48;12.70;99.90
10678;DHT22;5387;48.722;9.110;2022-11-11T10:52:20;12.70;99.90
10678;DHT22;5387;48.722;9.110;2022-11-11T10:54:51;12.70;99.90
10678;DHT22;5387;48.722;9.110;2022-11-11T10:57:23;12.90;99.90
10678;DHT22;5387;48.722;9.110;2022-11-11T10:59:55;13.00;99.90
10678;DHT22;5387;48.722;9.110;2022-11-11T11:02:26;13.10;99.90
10678;DHT22;5387;48.722;9.110;2022-11-11T11:04:59;13.20;99.90
10678;DHT22;5387;48.722;9.110;2022-11-11T11:07:33;13.20;99.90
10678;DHT22;5387;48.722;9.110;2022-11-11T11:10:06;13.00;99.90
10678;DHT22;5387;48.722;9.110;2022-11-11T11:12:40;13.10;99.90
10678;DHT22;5387;48.722;9.110;2022-11-11T11:15:12;13.10;99.90
10678;DHT22;5387;48.722;9.110;2022-11-11T11:17:48;13.30;99.90
10678;DHT22;5387;48.722;9.110;2022-11-11T11:20:18;13.20;99.90
10678;DHT22;5387;48.722;9.110;2022-11-11T11:22:48;13.60;99.90
10678;DHT22;5387;48.722;9.110;2022-11-11T11:25:16;13.60;99.90
10678;DHT22;5387;48.722;9.110;2022-11-11T11:27:44;13.60;99.90
10678;DHT22;5387;48.722;9.110;2022-11-11T11:30:13;13.50;99.90
10678;DHT22;5387;48.722;9.110;2022-11-11T11:32:41;13.40;99.90
10678;DHT22;5387;48.722;9.110;2022-11-11T11:35:12;13.50;99.90
10678;DHT22;5387;48.722;9.110;2022-11-11T11:37:55;13.60;99.90
10678;DHT22;5387;48.722;9.110;2022-11-11T11:40:22;13.60;99.90
10678;DHT22;5387;48.722;9.110;2022-11-11T11:42:49;13.60;99.90
10678;DHT22;5387;48.722;9.110;2022-11-11T11:45:21;13.50;99.90
10678;DHT22;5387;48.722;9.110;2022-11-11T11:47:58;13.40;99.90
10678;DHT22;5387;48.722;9.110;2022-11-11T11:50:40;13.50;99.90
10678;DHT22;5387;48.722;9.110;2022-11-11T11:53:34;13.50;99.90
10678;DHT22;5387;48.722;9.110;2022-11-11T11:56:14;13.40;99.90
10678;DHT22;5387;48.722;9.110;2022-11-11T11:58:53;13.30;99.90
10678;DHT22;5387;48.722;9.110;2022-11-11T12:01:26;13.40;99.90
10678;DHT22;5387;48.722;9.110;2022-11-11T12:07:11;13.40;99.90
10678;DHT22;5387;48.722;9.110;2022-11-11T12:09:53;13.50;99.90
10678;DHT22;5387;48.722;9.110;2022-11-11T12:12:31;13.60;99.90
10678;DHT22;5387;48.722;9.110;2022-11-11T12:15:20;13.70;99.90
10678;DHT22;5387;48.722;9.110;2022-11-11T12:17:59;13.90;99.90
10678;DHT22;5387;48.722;9.110;2022-11-11T12:20:37;14.00;99.90
10678;DHT22;5387;48.722;9.110;2022-11-11T12:23:24;14.10;99.90
10678;DHT22;5387;48.722;9.110;2022-11-11T12:26:05;14.00;99.90
10678;DHT22;5387;48.722;9.110;2022-11-11T12:28:50;14.30;99.90
10678;DHT22;5387;48.722;9.110;2022-11-11T12:31:27;14.50;99.90
10678;DHT22;5387;48.722;9.110;2022-11-11T12:34:04;14.60;99.90
10678;DHT22;5387;48.722;9.110;2022-11-11T12:36:42;14.60;99.90
10678;DHT22;5387;48.722;9.110;2022-11-11T12:39:23;14.70;99.90
10678;DHT22;5387;48.722;9.110;2022-11-11T12:42:06;14.70;99.90
10678;DHT22;5387;48.722;9.110;2022-11-11T12:44:40;14.90;99.90
10678;DHT22;5387;48.722;9.110;2022-11-11T12:47:25;14.80;99.90
10678;DHT22;5387;48.722;9.110;2022-11-11T12:49:57;14.80;99.90
10678;DHT22;5387;48.722;9.110;2022-11-11T12:52:37;14.50;99.90
10678;DHT22;5387;48.722;9.110;2022-11-11T12:55:15;14.40;99.90
10678;DHT22;5387;48.722;9.110;2022-11-11T12:57:58;14.40;99.90
10678;DHT22;5387;48.722;9.110;2022-11-11T13:00:26;14.40;99.90
10678;DHT22;5387;48.722;9.110;2022-11-11T13:03:05;14.70;99.90
10678;DHT22;5387;48.722;9.110;2022-11-11T13:05:40;14.60;99.90
10678;DHT22;5387;48.722;9.110;2022-11-11T13:11:05;14.30;99.90
10678;DHT22;5387;48.722;9.110;2022-11-11T13:13:46;14.20;99.90
10678;DHT22;5387;48.722;9.110;2022-11-11T13:16:17;14.20;99.90
10678;DHT22;5387;48.722;9.110;2022-11-11T13:18:50;14.20;99.90
10678;DHT22;5387;48.722;9.110;2022-11-11T13:21:23;14.10;99.90
10678;DHT22;5387;48.722;9.110;2022-11-11T13:23:51;14.20;99.90
10678;DHT22;5387;48.722;9.110;2022-11-11T13:26:28;14.10;99.90
10678;DHT22;5387;48.722;9.110;2022-11-11T13:29:18;14.00;99.90
10678;DHT22;5387;48.722;9.110;2022-11-11T13:31:51;13.80;99.90
10678;DHT22;5387;48.722;9.110;2022-11-11T13:34:20;13.90;99.90
10678;DHT22;5387;48.722;9.110;2022-11-11T13:36:50;14.00;99.90
10678;DHT22;5387;48.722;9.110;2022-11-11T13:39:25;13.80;99.90
10678;DHT22;5387;48.722;9.110;2022-11-11T13:41:55;13.80;99.90
10678;DHT22;5387;48.722;9.110;2022-11-11T13:44:27;14.00;99.90
10678;DHT22;5387;48.722;9.110;2022-11-11T13:47:02;14.20;99.90
10678;DHT22;5387;48.722;9.110;2022-11-11T13:49:33;14.20;99.90
10678;DHT22;5387;48.722;9.110;2022-11-11T13:52:02;14.40;99.90
10678;DHT22;5387;48.722;9.110;2022-11-11T13:54:32;14.50;99.90
10678;DHT22;5387;48.722;9.110;2022-11-11T13:57:02;14.70;99.90
10678;DHT22;5387;48.722;9.110;2022-11-11T13:59:33;14.50;99.90
10678;DHT22;5387;48.722;9.110;2022-11-11T14:02:27;14.40;99.90
10678;DHT22;5387;48.722;9.110;2022-11-11T14:05:20;14.30;99.90
10678;DHT22;5387;48.722;9.110;2022-11-11T14:07:54;14.30;99.90
10678;DHT22;5387;48.722;9.110;2022-11-11T14:10:49;14.10;99.90
10678;DHT22;5387;48.722;9.110;2022-11-11T14:13:39;14.00;99.90
10678;DHT22;5387;48.722;9.110;2022-11-11T14:16:11;14.00;99.90
10678;DHT22;5387;48.722;9.110;2022-11-11T14:18:58;13.90;99.90
10678;DHT22;5387;48.722;9.110;2022-11-11T14:21:48;13.80;99.90
10678;DHT22;5387;48.722;9.110;2022-11-11T14:24:22;13.90;99.90
10678;DHT22;5387;48.722;9.110;2022-11-11T14:26:57;13.80;99.90
10678;DHT22;5387;48.722;9.110;2022-11-11T14:29:28;13.80;99.90
10678;DHT22;5387;48.722;9.110;2022-11-11T14:32:11;13.80;99.90
10678;DHT22;5387;48.722;9.110;2022-11-11T14:34:52;13.60;99.90
10678;DHT22;5387;48.722;9.110;2022-11-11T14:37:51;13.60;99.90
10678;DHT22;5387;48.722;9.110;2022-11-11T14:40:25;13.50;99.90
10678;DHT22;5387;48.722;9.110;2022-11-11T14:42:52;13.50;99.90
10678;DHT22;5387;48.722;9.110;2022-11-11T14:48:52;13.40;99.90
10678;DHT22;5387;48.722;9.110;2022-11-11T14:51:47;13.30;99.90
10678;DHT22;5387;48.722;9.110;2022-11-11T14:54:35;13.30;99.90
10678;DHT22;5387;48.722;9.110;2022-11-11T14:57:06;13.20;99.90
10678;DHT22;5387;48.722;9.110;2022-11-11T14:59:33;13.10;99.90
10678;DHT22;5387;48.722;9.110;2022-11-11T15:02:01;13.10;99.90
10678;DHT22;5387;48.722;9.110;2022-11-11T15:04:36;13.10;99.90
10678;DHT22;5387;48.722;9.110;2022-11-11T15:07:04;13.00;99.90
10678;DHT22;5387;48.722;9.110;2022-11-11T15:13:14;12.80;99.90
10678;DHT22;5387;48.722;9.110;2022-11-11T15:15:50;12.60;99.90
10678;DHT22;5387;48.722;9.110;2022-11-11T15:18:40;12.40;99.90
10678;DHT22;5387;48.722;9.110;2022-11-11T15:21:16;12.10;99.90
10678;DHT22;5387;48.722;9.110;2022-11-11T15:23:49;11.80;99.90
10678;DHT22;5387;48.722;9.110;2022-11-11T15:26:28;11.80;99.90
10678;DHT22;5387;48.722;9.110;2022-11-11T15:29:07;11.60;99.90
10678;DHT22;5387;48.722;9.110;2022-11-11T15:31:43;11.50;99.90
10678;DHT22;5387;48.722;9.110;2022-11-11T15:34:28;11.40;99.90
10678;DHT22;5387;48.722;9.110;2022-11-11T15:37:01;11.30;99.90
10678;DHT22;5387;48.722;9.110;2022-11-11T15:39:37;11.10;99.90
10678;DHT22;5387;48.722;9.110;2022-11-11T15:42:11;11.00;99.90
10678;DHT22;5387;48.722;9.110;2022-11-11T15:44:39;10.80;99.90
10678;DHT22;5387;48.722;9.110;2022-11-11T15:47:09;10.70;99.90
10678;DHT22;5387;48.722;9.110;2022-11-11T15:49:39;10.60;99.90
10678;DHT22;5387;48.722;9.110;2022-11-11T15:52:26;10.40;99.90
10678;DHT22;5387;48.722;9.110;2022-11-11T15:54:54;10.20;99.90
10678;DHT22;5387;48.722;9.110;2022-11-11T15:57:27;10.00;99.90
10678;DHT22;5387;48.722;9.110;2022-11-11T15:59:54;9.90;99.90
10678;DHT22;5387;48.722;9.110;2022-11-11T16:02:23;9.80;99.90
10678;DHT22;5387;48.722;9.110;2022-11-11T16:04:54;9.80;99.90
10678;DHT22;5387;48.722;9.110;2022-11-11T16:07:25;9.70;99.90
10678;DHT22;5387;48.722;9.110;2022-11-11T16:09:54;9.70;99.90
10678;DHT22;5387;48.722;9.110;2022-11-11T16:12:25;9.60;99.90
10678;DHT22;5387;48.722;9.110;2022-11-11T16:14:56;9.60;99.90
10678;DHT22;5387;48.722;9.110;2022-11-11T16:17:27;9.50;99.90
10678;DHT22;5387;48.722;9.110;2022-11-11T16:19:55;9.40;99.90
10678;DHT22;5387;48.722;9.110;2022-11-11T16:22:26;9.30;99.90
10678;DHT22;5387;48.722;9.110;2022-11-11T16:24:55;9.20;99.90
10678;DHT22;5387;48.722;9.110;2022-11-11T16:27:25;9.10;99.90
10678;DHT22;5387;48.722;9.110;2022-11-11T16:29:53;9.00;99.90
10678;DHT22;5387;48.722;9.110;2022-11-11T16:32:33;9.00;99.90
10678;DHT22;5387;48.722;9.110;2022-11-11T16:35:00;9.00;99.90
10678;DHT22;5387;48.722;9.110;2022-11-11T16:37:29;8.90;99.90
10678;DHT22;5387;48.722;9.110;2022-11-11T16:39:55;8.80;99.90